»·PEaware :: N701GT KSBA-KDEN

N701GT :: KSBA-KDEN

FLIGHT INFORMATION

Flight Status: Arrived
Operator: Privately registered:
United States
More flights under this callsign
Pilot: Anonymous 17564 (17564)
Aircraft: BEECH AIRCRAFT SUPER KING AIR COMMUTER
(BE20)
More flights by this aircraft type
Origin: KSBA Santa Barbara Mun
United States
Destination: KDEN Denver Intl
United States
More flights between these airports :: More routes between these airports
Route: +MISHN2 NNAVY LAS J146 DVC / GRIPP POWDR9
File this flight plan on PilotEdge
Remarks:
Altitude:
(Current/Filed)
25,000ft
Speed:
(Current/Filed)
280kts
Departed: 30-Mar-19 06:22 PM
Arrived: 30-Mar-19 09:15 PM
Distance/Time
Traveled:
794nm/2:53
Distance/Time
To Go:
Arrived

Flight Plot

Page will automatically refresh every two minutes.


Map Options




Map Legend


Flown Route
Filed Route
Departure Airport
Arrival Airport
Navaid (VOR, NDB)
Fix

Horizontal Profiles

Position Reports

Time Latitude Longitude Heading Altitude Ground
Speed
30-Mar-19 17:58 34.432345 -119.836024 70 14ft 0kts
30-Mar-19 18:00 34.432345 -119.836024 70 14ft 0kts
30-Mar-19 18:00 34.432345 -119.836024 70 14ft 0kts
30-Mar-19 18:01 34.432345 -119.836024 70 14ft 0kts
30-Mar-19 18:02 34.432345 -119.836024 70 14ft 0kts
30-Mar-19 18:03 34.432345 -119.836024 70 14ft 0kts
30-Mar-19 18:04 34.432345 -119.836024 70 14ft 0kts
30-Mar-19 18:05 34.432345 -119.836024 70 14ft 0kts
30-Mar-19 18:06 34.432345 -119.836024 70 14ft 0kts
30-Mar-19 18:07 34.432345 -119.836024 70 14ft 0kts
30-Mar-19 18:08 34.432345 -119.836024 70 14ft 0kts
30-Mar-19 18:09 34.432345 -119.836024 70 14ft 0kts
30-Mar-19 18:10 34.432345 -119.836024 70 14ft 0kts
30-Mar-19 18:11 34.432345 -119.836024 70 14ft 0kts
30-Mar-19 18:12 34.432345 -119.836024 70 14ft 0kts
30-Mar-19 18:13 34.432345 -119.836024 70 14ft 0kts
30-Mar-19 18:14 34.432347 -119.836015 74 14ft 1kts
30-Mar-19 18:15 34.429676 -119.835285 178 14ft 10kts
30-Mar-19 18:16 34.428754 -119.834937 177 14ft 0kts
30-Mar-19 18:17 34.428754 -119.834937 177 14ft 0kts
30-Mar-19 18:18 34.428754 -119.834937 177 14ft 0kts
30-Mar-19 18:19 34.428754 -119.834937 177 14ft 0kts
30-Mar-19 18:20 34.428264 -119.834910 177 14ft 0kts
30-Mar-19 18:21 34.427412 -119.852620 264 128ft 140kts
30-Mar-19 18:22 34.425246 -119.908478 267 1828ft 176kts
30-Mar-19 18:23 34.396046 -119.947304 172 3011ft 201kts
30-Mar-19 18:24 34.341237 -119.928344 144 3013ft 211kts
30-Mar-19 18:25 34.298170 -119.879639 134 3226ft 204kts
30-Mar-19 18:26 34.260276 -119.833307 134 3992ft 192kts
30-Mar-19 18:27 34.222308 -119.787170 133 5272ft 194kts
30-Mar-19 18:28 34.201720 -119.730780 91 6571ft 188kts
30-Mar-19 18:29 34.199215 -119.665765 91 7590ft 198kts
30-Mar-19 18:30 34.196071 -119.597709 91 8936ft 207kts
30-Mar-19 18:31 34.195542 -119.527748 83 10813ft 212kts
30-Mar-19 18:32 34.199027 -119.455163 82 12443ft 227kts
30-Mar-19 18:33 34.202251 -119.376940 82 14038ft 237kts
30-Mar-19 18:34 34.205381 -119.296498 81 15686ft 244kts
30-Mar-19 18:35 34.208578 -119.213143 81 17166ft 255kts
30-Mar-19 18:36 34.211748 -119.126772 81 18763ft 260kts
30-Mar-19 18:37 34.221842 -119.039729 67 20144ft 265kts
30-Mar-19 18:38 34.241045 -118.952143 67 21684ft 273kts
30-Mar-19 18:39 34.259693 -118.861951 68 23135ft 281kts
30-Mar-19 18:40 34.278411 -118.768701 68 24539ft 288kts
30-Mar-19 18:41 34.297934 -118.670947 69 25106ft 314kts
30-Mar-19 18:42 34.318880 -118.564338 69 25080ft 333kts
30-Mar-19 18:43 34.340144 -118.454830 69 25089ft 338kts
30-Mar-19 18:44 34.361740 -118.343334 69 25099ft 340kts
30-Mar-19 18:45 34.383301 -118.231643 70 25110ft 341kts
30-Mar-19 18:46 34.404766 -118.119940 70 25105ft 341kts
30-Mar-19 18:47 34.426931 -118.008372 63 25107ft 337kts
30-Mar-19 18:48 34.465604 -117.907078 54 25111ft 330kts
30-Mar-19 18:49 34.506756 -117.807412 55 25115ft 330kts
30-Mar-19 18:50 34.546729 -117.706821 56 25119ft 331kts
30-Mar-19 18:51 34.586094 -117.605695 57 25128ft 332kts
30-Mar-19 18:52 34.625306 -117.504097 57 25129ft 332kts
30-Mar-19 18:53 34.664412 -117.402337 57 25129ft 333kts
30-Mar-19 18:54 34.703563 -117.300014 57 25127ft 333kts
30-Mar-19 18:55 34.742520 -117.197849 57 25137ft 332kts
30-Mar-19 18:56 34.781263 -117.095959 57 25138ft 332kts
30-Mar-19 18:57 34.819909 -116.993976 57 25133ft 332kts
30-Mar-19 18:58 34.858620 -116.891400 58 25124ft 333kts
30-Mar-19 18:59 34.897164 -116.788828 58 25121ft 333kts
30-Mar-19 19:00 34.940918 -116.690988 41 25126ft 320kts
30-Mar-19 19:01 35.002044 -116.613696 36 25133ft 316kts
30-Mar-19 19:02 35.063522 -116.536242 37 25153ft 317kts
30-Mar-19 19:03 35.123805 -116.457573 38 25161ft 318kts
30-Mar-19 19:04 35.183900 -116.377939 38 25163ft 318kts
30-Mar-19 19:05 35.243940 -116.297841 38 25164ft 319kts
30-Mar-19 19:06 35.303733 -116.217799 38 25167ft 319kts
30-Mar-19 19:07 35.363549 -116.137492 38 25165ft 319kts
30-Mar-19 19:08 35.423353 -116.057012 38 25160ft 319kts
30-Mar-19 19:09 35.483048 -115.976483 38 25160ft 319kts
30-Mar-19 19:10 35.542865 -115.895597 38 25159ft 320kts
30-Mar-19 19:11 35.602660 -115.814539 38 25158ft 320kts
30-Mar-19 19:12 35.662499 -115.733208 38 25161ft 320kts
30-Mar-19 19:13 35.722269 -115.651804 38 25161ft 320kts
30-Mar-19 19:14 35.781902 -115.570350 39 25162ft 320kts
30-Mar-19 19:15 35.841700 -115.488499 39 25164ft 321kts
30-Mar-19 19:16 35.901212 -115.406800 39 25166ft 321kts
30-Mar-19 19:17 35.960892 -115.324646 39 25168ft 321kts
30-Mar-19 19:18 36.020596 -115.242190 39 25154ft 322kts
30-Mar-19 19:19 36.078520 -115.157404 50 25136ft 332kts
30-Mar-19 19:20 36.115946 -115.050581 62 25137ft 341kts
30-Mar-19 19:21 36.148307 -114.940338 62 25147ft 341kts
30-Mar-19 19:22 36.181429 -114.830275 62 25151ft 341kts
30-Mar-19 19:23 36.215277 -114.720297 61 25153ft 341kts
30-Mar-19 19:24 36.249060 -114.610247 62 25157ft 342kts
30-Mar-19 19:25 36.282673 -114.499949 62 25163ft 342kts
30-Mar-19 19:26 36.316229 -114.389286 62 25164ft 343kts
30-Mar-19 19:27 36.349595 -114.278754 62 25166ft 343kts
30-Mar-19 19:28 36.382994 -114.167636 62 25167ft 344kts
30-Mar-19 19:29 36.416284 -114.056413 62 25168ft 343kts
30-Mar-19 19:30 36.449526 -113.944937 62 25170ft 344kts
30-Mar-19 19:31 36.482691 -113.833241 62 25178ft 345kts
30-Mar-19 19:32 36.515826 -113.721212 62 25180ft 346kts
30-Mar-19 19:33 36.548944 -113.608697 62 25182ft 346kts
30-Mar-19 19:34 36.581850 -113.496298 62 25201ft 346kts
30-Mar-19 19:35 36.614732 -113.383427 62 25205ft 347kts
30-Mar-19 19:36 36.647601 -113.270509 62 25210ft 348kts
30-Mar-19 19:37 36.680607 -113.157111 62 25215ft 349kts
30-Mar-19 19:38 36.713586 -113.042957 62 25220ft 350kts
30-Mar-19 19:39 36.746409 -112.928596 62 25232ft 350kts
30-Mar-19 19:40 36.779025 -112.814460 62 25235ft 350kts
30-Mar-19 19:41 36.811656 -112.699723 62 25239ft 351kts
30-Mar-19 19:42 36.844120 -112.584918 63 25244ft 351kts
30-Mar-19 19:43 36.876463 -112.469850 63 25249ft 351kts
30-Mar-19 19:44 36.908750 -112.354429 63 25250ft 352kts
30-Mar-19 19:45 36.941250 -112.239046 62 25246ft 352kts
30-Mar-19 19:46 36.973582 -112.123714 62 25240ft 352kts
30-Mar-19 19:47 37.005892 -112.007623 63 25231ft 353kts
30-Mar-19 19:48 37.038127 -111.891396 63 25230ft 354kts
30-Mar-19 19:49 37.070254 -111.774870 63 25225ft 355kts
30-Mar-19 19:50 37.102240 -111.657976 63 25213ft 355kts
30-Mar-19 19:51 37.134225 -111.540767 63 25207ft 355kts
30-Mar-19 19:52 37.165881 -111.423694 64 25210ft 355kts
30-Mar-19 19:53 37.197537 -111.306286 63 25209ft 355kts
30-Mar-19 19:54 37.229013 -111.188950 64 25215ft 355kts
30-Mar-19 19:55 37.260500 -111.071760 64 25218ft 355kts
30-Mar-19 19:56 37.291960 -110.954383 64 25222ft 355kts
30-Mar-19 19:57 37.323269 -110.836904 64 25229ft 354kts
30-Mar-19 19:58 37.354321 -110.719527 65 25236ft 354kts
30-Mar-19 19:59 37.385214 -110.601526 65 25254ft 354kts
30-Mar-19 20:00 37.415923 -110.483738 65 25259ft 355kts
30-Mar-19 20:01 37.446832 -110.365764 65 25265ft 355kts
30-Mar-19 20:02 37.477486 -110.247586 66 25281ft 354kts
30-Mar-19 20:03 37.507899 -110.129950 66 25282ft 354kts
30-Mar-19 20:04 37.538198 -110.011598 66 25298ft 354kts
30-Mar-19 20:05 37.568504 -109.893606 66 25297ft 354kts
30-Mar-19 20:06 37.598558 -109.775596 67 25304ft 354kts
30-Mar-19 20:07 37.628466 -109.656996 67 25308ft 354kts
30-Mar-19 20:08 37.658209 -109.538803 67 25313ft 354kts
30-Mar-19 20:09 37.687934 -109.420431 67 25311ft 354kts
30-Mar-19 20:10 37.717682 -109.301577 67 25308ft 354kts
30-Mar-19 20:11 37.747094 -109.182999 67 25303ft 354kts
30-Mar-19 20:13 37.776324 -109.064478 68 25299ft 353kts
30-Mar-19 20:14 37.805469 -108.945795 68 25294ft 352kts
30-Mar-19 20:15 37.849303 -108.837757 50 25302ft 343kts
30-Mar-19 20:16 37.901771 -108.737544 51 25304ft 342kts
30-Mar-19 20:17 37.953215 -108.635731 52 25315ft 342kts
30-Mar-19 20:18 38.003392 -108.533571 53 25324ft 341kts
30-Mar-19 20:19 38.052592 -108.432583 54 25321ft 334kts
30-Mar-19 20:20 38.101003 -108.332307 53 25321ft 331kts
30-Mar-19 20:21 38.148989 -108.232641 54 25319ft 332kts
30-Mar-19 20:22 38.197048 -108.132204 54 25318ft 332kts
30-Mar-19 20:23 38.245115 -108.031581 54 25315ft 333kts
30-Mar-19 20:24 38.293069 -107.930957 54 25311ft 332kts
30-Mar-19 20:25 38.340814 -107.830422 55 25310ft 331kts
30-Mar-19 20:26 38.388118 -107.730364 55 25310ft 329kts
30-Mar-19 20:27 38.435155 -107.630522 55 25310ft 327kts
30-Mar-19 20:28 38.481011 -107.531011 57 25311ft 324kts
30-Mar-19 20:29 38.525727 -107.431542 57 25306ft 322kts
30-Mar-19 20:30 38.570118 -107.332355 57 25298ft 319kts
30-Mar-19 20:31 38.609080 -107.231032 69 25302ft 318kts
30-Mar-19 20:32 38.635897 -107.123333 72 25304ft 317kts
30-Mar-19 20:33 38.662979 -107.016452 68 25302ft 315kts
30-Mar-19 20:34 38.691966 -106.910734 69 25302ft 314kts
30-Mar-19 20:35 38.720179 -106.805345 69 25319ft 313kts
30-Mar-19 20:35 38.743431 -106.717254 69 25329ft 312kts
30-Mar-19 20:37 38.775566 -106.594496 69 25341ft 312kts
30-Mar-19 20:38 38.804426 -106.489498 59 25336ft 310kts
30-Mar-19 20:38 38.846728 -106.416223 48 25332ft 307kts
30-Mar-19 20:40 38.908967 -106.316774 50 25332ft 306kts
30-Mar-19 20:40 38.951989 -106.244167 51 25342ft 305kts
30-Mar-19 20:41 39.002471 -106.157098 51 25344ft 303kts
30-Mar-19 20:42 39.052471 -106.070172 53 25352ft 301kts
30-Mar-19 20:43 39.101975 -105.983579 53 25343ft 299kts
30-Mar-19 20:45 39.158919 -105.883678 53 25348ft 295kts
30-Mar-19 20:45 39.198988 -105.813134 54 25348ft 291kts
30-Mar-19 20:46 39.248795 -105.728636 52 24612ft 302kts
30-Mar-19 20:47 39.297685 -105.646617 53 23423ft 272kts
30-Mar-19 20:48 39.343110 -105.570073 53 23349ft 263kts
30-Mar-19 20:49 39.387225 -105.495546 53 23357ft 259kts
30-Mar-19 20:50 39.431092 -105.421409 53 23364ft 258kts
30-Mar-19 20:51 39.476466 -105.344309 53 22022ft 284kts
30-Mar-19 20:52 39.523445 -105.264100 53 20019ft 272kts
30-Mar-19 20:53 39.568080 -105.187770 52 18039ft 265kts
30-Mar-19 20:54 39.612495 -105.111808 52 16141ft 259kts
30-Mar-19 20:55 39.654078 -105.040723 51 16005ft 244kts
30-Mar-19 20:56 39.694807 -104.970747 51 16007ft 245kts
30-Mar-19 20:57 39.737129 -104.897724 51 14463ft 258kts
30-Mar-19 20:58 39.779962 -104.823409 50 12266ft 256kts
30-Mar-19 20:59 39.821803 -104.751121 51 10819ft 231kts
30-Mar-19 21:00 39.870998 -104.719212 0 10871ft 187kts
30-Mar-19 21:01 39.920082 -104.718975 358 10811ft 174kts
30-Mar-19 21:02 39.965075 -104.718845 358 10819ft 138kts
30-Mar-19 21:03 40.004668 -104.718554 358 10831ft 143kts
30-Mar-19 21:04 40.044315 -104.718380 358 10820ft 142kts
30-Mar-19 21:05 40.084310 -104.718268 358 10264ft 145kts
30-Mar-19 21:06 40.120271 -104.705154 67 8439ft 150kts
30-Mar-19 21:07 40.100855 -104.661308 132 7836ft 146kts
30-Mar-19 21:08 40.060882 -104.656654 183 7821ft 147kts
30-Mar-19 21:09 40.020175 -104.658687 181 7819ft 145kts
30-Mar-19 21:10 39.979756 -104.658753 179 7915ft 142kts
30-Mar-19 21:11 39.937829 -104.658880 181 7325ft 155kts
30-Mar-19 21:12 39.897642 -104.659820 181 6117ft 129kts
30-Mar-19 21:13 39.862221 -104.660065 180 5532ft 119kts
30-Mar-19 21:14 39.845012 -104.660392 181 5435ft 19kts
30-Mar-19 21:15 39.841829 -104.660874 198 5435ft 0kts
30-Mar-19 21:16 39.841827 -104.660875 198 5435ft 0kts
30-Mar-19 21:17 39.839967 -104.663587 211 5435ft 7kts
30-Mar-19 21:18 39.838948 -104.665369 269 5435ft 0kts
30-Mar-19 21:19 39.838948 -104.665369 269 5435ft 0kts
30-Mar-19 21:20 39.838948 -104.665369 269 5435ft 0kts
30-Mar-19 21:21 39.838948 -104.665369 269 5435ft 0kts

Navigation Log

Ident Type
Flight plan parsing failed, navigation log unavailable